sensor_id;sensor_type;location;lat;lon;timestamp;pressure;altitude;pressure_sealevel;temperature
24586;BMP280;12743;52.262;6.172;2022-10-19T00:01:26;102472.31;;;8.78
24586;BMP280;12743;52.262;6.172;2022-10-19T00:03:53;102478.13;;;8.65
24586;BMP280;12743;52.262;6.172;2022-10-19T00:06:27;102491.44;;;8.68
24586;BMP280;12743;52.262;6.172;2022-10-19T00:08:55;102494.09;;;8.63
24586;BMP280;12743;52.262;6.172;2022-10-19T00:11:21;102481.31;;;8.57
24586;BMP280;12743;52.262;6.172;2022-10-19T00:13:48;102479.41;;;8.72
24586;BMP280;12743;52.262;6.172;2022-10-19T00:16:15;102483.59;;;8.58
24586;BMP280;12743;52.262;6.172;2022-10-19T00:18:41;102478.94;;;8.40
24586;BMP280;12743;52.262;6.172;2022-10-19T00:21:12;102473.44;;;8.47
24586;BMP280;12743;52.262;6.172;2022-10-19T00:23:38;102471.06;;;8.60
24586;BMP280;12743;52.262;6.172;2022-10-19T00:26:03;102472.13;;;8.44
24586;BMP280;12743;52.262;6.172;2022-10-19T00:28:29;102476.59;;;8.44
24586;BMP280;12743;52.262;6.172;2022-10-19T00:30:55;102478.41;;;8.38
24586;BMP280;12743;52.262;6.172;2022-10-19T00:33:21;102483.13;;;8.46
24586;BMP280;12743;52.262;6.172;2022-10-19T00:35:47;102486.25;;;8.38
24586;BMP280;12743;52.262;6.172;2022-10-19T00:38:15;102474.75;;;8.29
24586;BMP280;12743;52.262;6.172;2022-10-19T00:40:40;102479.19;;;8.39
24586;BMP280;12743;52.262;6.172;2022-10-19T00:43:19;102479.47;;;8.32
24586;BMP280;12743;52.262;6.172;2022-10-19T00:45:45;102474.00;;;8.14
24586;BMP280;12743;52.262;6.172;2022-10-19T00:48:14;102467.94;;;8.28
24586;BMP280;12743;52.262;6.172;2022-10-19T00:50:41;102475.28;;;8.26
24586;BMP280;12743;52.262;6.172;2022-10-19T00:53:07;102458.00;;;8.20
24586;BMP280;12743;52.262;6.172;2022-10-19T00:55:33;102470.81;;;8.12
24586;BMP280;12743;52.262;6.172;2022-10-19T00:57:59;102470.56;;;8.23
24586;BMP280;12743;52.262;6.172;2022-10-19T01:00:25;102453.78;;;7.89
24586;BMP280;12743;52.262;6.172;2022-10-19T01:02:50;102468.47;;;8.00
24586;BMP280;12743;52.262;6.172;2022-10-19T01:05:16;102466.66;;;8.05
24586;BMP280;12743;52.262;6.172;2022-10-19T01:07:41;102447.81;;;7.93
24586;BMP280;12743;52.262;6.172;2022-10-19T01:10:07;102450.09;;;7.85
24586;BMP280;12743;52.262;6.172;2022-10-19T01:12:49;102460.34;;;7.86
24586;BMP280;12743;52.262;6.172;2022-10-19T01:15:34;102443.06;;;7.80
24586;BMP280;12743;52.262;6.172;2022-10-19T01:18:27;102456.41;;;7.89
24586;BMP280;12743;52.262;6.172;2022-10-19T01:31:59;102459.06;;;7.84
24586;BMP280;12743;52.262;6.172;2022-10-19T01:34:31;102460.09;;;8.03
24586;BMP280;12743;52.262;6.172;2022-10-19T01:37:09;102461.91;;;7.92
24586;BMP280;12743;52.262;6.172;2022-10-19T01:39:41;102465.56;;;7.86
24586;BMP280;12743;52.262;6.172;2022-10-19T01:42:23;102465.56;;;7.96
24586;BMP280;12743;52.262;6.172;2022-10-19T01:44:54;102465.56;;;7.96
24586;BMP280;12743;52.262;6.172;2022-10-19T01:47:37;102457.69;;;7.76
24586;BMP280;12743;52.262;6.172;2022-10-19T01:50:15;102423.72;;;7.61
24586;BMP280;12743;52.262;6.172;2022-10-19T01:52:41;102450.38;;;7.78
24586;BMP280;12743;52.262;6.172;2022-10-19T01:55:10;102445.66;;;7.75
24586;BMP280;12743;52.262;6.172;2022-10-19T01:57:44;102446.19;;;7.67
24586;BMP280;12743;52.262;6.172;2022-10-19T02:00:11;102434.44;;;7.75
24586;BMP280;12743;52.262;6.172;2022-10-19T02:02:41;102439.88;;;7.63
24586;BMP280;12743;52.262;6.172;2022-10-19T02:05:08;102433.88;;;7.58
24586;BMP280;12743;52.262;6.172;2022-10-19T02:07:36;102438.63;;;7.71
24586;BMP280;12743;52.262;6.172;2022-10-19T02:10:02;102437.03;;;7.70
24586;BMP280;12743;52.262;6.172;2022-10-19T02:12:30;102404.03;;;7.38
24586;BMP280;12743;52.262;6.172;2022-10-19T02:14:59;102432.03;;;7.63
24586;BMP280;12743;52.262;6.172;2022-10-19T02:17:33;102434.16;;;7.61
24586;BMP280;12743;52.262;6.172;2022-10-19T02:20:00;102435.72;;;7.57
24586;BMP280;12743;52.262;6.172;2022-10-19T02:22:26;102428.59;;;7.42
24586;BMP280;12743;52.262;6.172;2022-10-19T02:24:51;102432.78;;;7.43
24586;BMP280;12743;52.262;6.172;2022-10-19T02:27:16;102425.44;;;7.35
24586;BMP280;12743;52.262;6.172;2022-10-19T02:29:43;102421.31;;;7.44
24586;BMP280;12743;52.262;6.172;2022-10-19T02:32:09;102428.38;;;7.54
24586;BMP280;12743;52.262;6.172;2022-10-19T02:34:35;102424.44;;;7.47
24586;BMP280;12743;52.262;6.172;2022-10-19T02:37:01;102421.84;;;7.52
24586;BMP280;12743;52.262;6.172;2022-10-19T02:39:27;102424.69;;;7.45
24586;BMP280;12743;52.262;6.172;2022-10-19T02:44:39;102429.59;;;7.26
24586;BMP280;12743;52.262;6.172;2022-10-19T02:47:16;102430.59;;;7.15
24586;BMP280;12743;52.262;6.172;2022-10-19T02:49:43;102428.59;;;7.27
24586;BMP280;12743;52.262;6.172;2022-10-19T02:52:11;102419.94;;;7.32
24586;BMP280;12743;52.262;6.172;2022-10-19T02:54:38;102427.25;;;7.30
24586;BMP280;12743;52.262;6.172;2022-10-19T02:57:14;102420.69;;;7.22
24586;BMP280;12743;52.262;6.172;2022-10-19T02:59:39;102414.38;;;7.08
24586;BMP280;12743;52.262;6.172;2022-10-19T03:02:05;102420.16;;;7.15
24586;BMP280;12743;52.262;6.172;2022-10-19T03:04:30;102422.50;;;7.22
24586;BMP280;12743;52.262;6.172;2022-10-19T03:06:55;102426.94;;;7.16
24586;BMP280;12743;52.262;6.172;2022-10-19T03:09:21;102393.13;;;6.90
24586;BMP280;12743;52.262;6.172;2022-10-19T03:11:46;102423.22;;;6.97
24586;BMP280;12743;52.262;6.172;2022-10-19T03:14:11;102431.06;;;7.02
24586;BMP280;12743;52.262;6.172;2022-10-19T03:16:37;102431.84;;;6.98
24586;BMP280;12743;52.262;6.172;2022-10-19T03:19:02;102432.69;;;7.08
24586;BMP280;12743;52.262;6.172;2022-10-19T03:21:27;102419.31;;;7.05
24586;BMP280;12743;52.262;6.172;2022-10-19T03:23:53;102432.66;;;7.03
24586;BMP280;12743;52.262;6.172;2022-10-19T03:26:18;102433.91;;;6.91
24586;BMP280;12743;52.262;6.172;2022-10-19T03:28:44;102432.09;;;6.91
24586;BMP280;12743;52.262;6.172;2022-10-19T03:31:09;102426.06;;;6.91
24586;BMP280;12743;52.262;6.172;2022-10-19T03:33:34;102423.38;;;6.80
24586;BMP280;12743;52.262;6.172;2022-10-19T03:38:40;102419.00;;;6.96
24586;BMP280;12743;52.262;6.172;2022-10-19T03:41:07;102414.28;;;6.93
24586;BMP280;12743;52.262;6.172;2022-10-19T03:43:33;102407.31;;;6.99
24586;BMP280;12743;52.262;6.172;2022-10-19T03:45:58;102417.44;;;6.90
24586;BMP280;12743;52.262;6.172;2022-10-19T03:48:24;102413.28;;;6.94
24586;BMP280;12743;52.262;6.172;2022-10-19T03:50:58;102420.63;;;7.02
24586;BMP280;12743;52.262;6.172;2022-10-19T03:53:24;102423.38;;;6.75
24586;BMP280;12743;52.262;6.172;2022-10-19T03:55:49;102414.84;;;6.95
24586;BMP280;12743;52.262;6.172;2022-10-19T03:58:15;102417.44;;;6.90
24586;BMP280;12743;52.262;6.172;2022-10-19T04:00:40;102408.28;;;6.88
24586;BMP280;12743;52.262;6.172;2022-10-19T04:03:05;102413.22;;;6.84
24586;BMP280;12743;52.262;6.172;2022-10-19T04:05:31;102409.88;;;6.94
24586;BMP280;12743;52.262;6.172;2022-10-19T04:07:56;102389.22;;;6.87
24586;BMP280;12743;52.262;6.172;2022-10-19T04:10:21;102402.28;;;6.87
24586;BMP280;12743;52.262;6.172;2022-10-19T04:12:47;102411.19;;;6.91
24586;BMP280;12743;52.262;6.172;2022-10-19T04:15:12;102401.78;;;6.90
24586;BMP280;12743;52.262;6.172;2022-10-19T04:17:37;102404.88;;;6.92
24586;BMP280;12743;52.262;6.172;2022-10-19T04:20:03;102388.94;;;6.78
24586;BMP280;12743;52.262;6.172;2022-10-19T04:22:29;102399.63;;;6.77
24586;BMP280;12743;52.262;6.172;2022-10-19T04:24:54;102396.97;;;6.72
24586;BMP280;12743;52.262;6.172;2022-10-19T04:27:19;102391.22;;;6.65
24586;BMP280;12743;52.262;6.172;2022-10-19T04:29:45;102384.91;;;6.61
24586;BMP280;12743;52.262;6.172;2022-10-19T04:32:10;102400.06;;;6.64
24586;BMP280;12743;52.262;6.172;2022-10-19T04:34:35;102383.53;;;6.48
24586;BMP280;12743;52.262;6.172;2022-10-19T04:37:01;102388.84;;;6.63
24586;BMP280;12743;52.262;6.172;2022-10-19T04:39:26;102395.13;;;6.72
24586;BMP280;12743;52.262;6.172;2022-10-19T04:41:51;102384.94;;;6.66
24586;BMP280;12743;52.262;6.172;2022-10-19T04:44:17;102394.75;;;6.54
24586;BMP280;12743;52.262;6.172;2022-10-19T04:46:42;102378.38;;;6.63
24586;BMP280;12743;52.262;6.172;2022-10-19T04:49:07;102386.69;;;6.55
24586;BMP280;12743;52.262;6.172;2022-10-19T04:51:33;102395.06;;;6.52
24586;BMP280;12743;52.262;6.172;2022-10-19T04:53:59;102389.03;;;6.52
24586;BMP280;12743;52.262;6.172;2022-10-19T04:56:25;102386.94;;;6.49
24586;BMP280;12743;52.262;6.172;2022-10-19T04:58:54;102379.59;;;6.46
24586;BMP280;12743;52.262;6.172;2022-10-19T05:01:21;102378.00;;;6.45
24586;BMP280;12743;52.262;6.172;2022-10-19T05:03:47;102383.88;;;6.62
24586;BMP280;12743;52.262;6.172;2022-10-19T05:06:14;102360.78;;;6.44
24586;BMP280;12743;52.262;6.172;2022-10-19T05:08:39;102387.66;;;6.44
24586;BMP280;12743;52.262;6.172;2022-10-19T05:11:08;102386.06;;;6.43
24586;BMP280;12743;52.262;6.172;2022-10-19T05:13:35;102388.63;;;6.33
24586;BMP280;12743;52.262;6.172;2022-10-19T05:16:02;102385.28;;;6.38
24586;BMP280;12743;52.262;6.172;2022-10-19T05:18:28;102386.94;;;6.49
24586;BMP280;12743;52.262;6.172;2022-10-19T05:21:01;102389.75;;;6.42
24586;BMP280;12743;52.262;6.172;2022-10-19T05:23:27;102385.28;;;6.38
24586;BMP280;12743;52.262;6.172;2022-10-19T05:26:05;102398.34;;;6.43
24586;BMP280;12743;52.262;6.172;2022-10-19T05:28:31;102395.00;;;6.47
24586;BMP280;12743;52.262;6.172;2022-10-19T05:31:11;102397.75;;;6.31
24586;BMP280;12743;52.262;6.172;2022-10-19T05:33:37;102389.19;;;6.35
24586;BMP280;12743;52.262;6.172;2022-10-19T05:36:17;102391.00;;;6.35
24586;BMP280;12743;52.262;6.172;2022-10-19T05:38:45;102388.38;;;6.35
24586;BMP280;12743;52.262;6.172;2022-10-19T05:41:10;102395.72;;;6.43
24586;BMP280;12743;52.262;6.172;2022-10-19T05:43:36;102391.03;;;6.40
24586;BMP280;12743;52.262;6.172;2022-10-19T05:46:05;102386.06;;;6.43
24586;BMP280;12743;52.262;6.172;2022-10-19T05:48:32;102387.38;;;6.36
24586;BMP280;12743;52.262;6.172;2022-10-19T05:50:59;102398.91;;;6.45
24586;BMP280;12743;52.262;6.172;2022-10-19T05:53:25;102398.06;;;6.39
24586;BMP280;12743;52.262;6.172;2022-10-19T05:55:51;102408.28;;;6.41
24586;BMP280;12743;52.262;6.172;2022-10-19T05:58:16;102402.53;;;6.39
24586;BMP280;12743;52.262;6.172;2022-10-19T06:00:42;102384.13;;;6.24
24586;BMP280;12743;52.262;6.172;2022-10-19T06:03:07;102405.91;;;6.39
24586;BMP280;12743;52.262;6.172;2022-10-19T06:05:35;102404.91;;;6.45
24586;BMP280;12743;52.262;6.172;2022-10-19T06:08:00;102396.00;;;6.41
24586;BMP280;12743;52.262;6.172;2022-10-19T06:10:26;102397.31;;;6.44
24586;BMP280;12743;52.262;6.172;2022-10-19T06:12:51;102398.09;;;6.44
24586;BMP280;12743;52.262;6.172;2022-10-19T06:15:16;102393.13;;;6.43
24586;BMP280;12743;52.262;6.172;2022-10-19T06:17:42;102393.69;;;6.45
24586;BMP280;12743;52.262;6.172;2022-10-19T06:20:07;102406.75;;;6.50
24586;BMP280;12743;52.262;6.172;2022-10-19T06:22:33;102407.03;;;6.48
24586;BMP280;12743;52.262;6.172;2022-10-19T06:24:58;102401.75;;;6.38
24586;BMP280;12743;52.262;6.172;2022-10-19T06:27:23;102402.47;;;6.34
24586;BMP280;12743;52.262;6.172;2022-10-19T06:29:49;102410.38;;;6.39
24586;BMP280;12743;52.262;6.172;2022-10-19T06:32:14;102406.69;;;6.40
24586;BMP280;12743;52.262;6.172;2022-10-19T06:34:39;102409.56;;;6.38
24586;BMP280;12743;52.262;6.172;2022-10-19T06:37:05;102419.47;;;6.41
24586;BMP280;12743;52.262;6.172;2022-10-19T06:39:30;102408.25;;;6.36
24586;BMP280;12743;52.262;6.172;2022-10-19T06:41:55;102422.88;;;6.42
24586;BMP280;12743;52.262;6.172;2022-10-19T06:44:23;102415.06;;;6.42
24586;BMP280;12743;52.262;6.172;2022-10-19T06:46:48;102422.13;;;6.46
24586;BMP280;12743;52.262;6.172;2022-10-19T06:49:14;102419.56;;;6.51
24586;BMP280;12743;52.262;6.172;2022-10-19T06:51:39;102386.31;;;6.37
24586;BMP280;12743;52.262;6.172;2022-10-19T06:54:05;102424.13;;;6.71
24586;BMP280;12743;52.262;6.172;2022-10-19T06:56:31;102430.16;;;6.76
24586;BMP280;12743;52.262;6.172;2022-10-19T06:58:56;102424.66;;;6.73
24586;BMP280;12743;52.262;6.172;2022-10-19T07:01:22;102412.09;;;6.65
24586;BMP280;12743;52.262;6.172;2022-10-19T07:03:50;102434.34;;;6.77
24586;BMP280;12743;52.262;6.172;2022-10-19T07:06:15;102425.19;;;6.75
24586;BMP280;12743;52.262;6.172;2022-10-19T07:08:41;102408.44;;;6.71
24586;BMP280;12743;52.262;6.172;2022-10-19T07:11:13;102428.91;;;6.84
24586;BMP280;12743;52.262;6.172;2022-10-19T07:13:39;102423.16;;;6.82
24586;BMP280;12743;52.262;6.172;2022-10-19T07:16:10;102417.94;;;6.92
24586;BMP280;12743;52.262;6.172;2022-10-19T07:18:37;102417.47;;;6.95
24586;BMP280;12743;52.262;6.172;2022-10-19T07:21:06;102414.59;;;6.97
24586;BMP280;12743;52.262;6.172;2022-10-19T07:23:33;102410.16;;;6.97
24586;BMP280;12743;52.262;6.172;2022-10-19T07:26:06;102416.44;;;7.06
24586;BMP280;12743;52.262;6.172;2022-10-19T07:28:32;102410.44;;;7.06
24586;BMP280;12743;52.262;6.172;2022-10-19T07:31:03;102421.69;;;7.01
24586;BMP280;12743;52.262;6.172;2022-10-19T07:33:28;102417.25;;;7.07
24586;BMP280;12743;52.262;6.172;2022-10-19T07:35:58;102417.53;;;7.10
24586;BMP280;12743;52.262;6.172;2022-10-19T07:38:24;102412.81;;;7.12
24586;BMP280;12743;52.262;6.172;2022-10-19T07:40:49;102388.22;;;6.98
24586;BMP280;12743;52.262;6.172;2022-10-19T07:43:14;102412.63;;;7.24
24586;BMP280;12743;52.262;6.172;2022-10-19T07:45:40;102400.50;;;7.03
24586;BMP280;12743;52.262;6.172;2022-10-19T07:48:05;102417.28;;;7.12
24586;BMP280;12743;52.262;6.172;2022-10-19T07:50:30;102413.63;;;7.18
24586;BMP280;12743;52.262;6.172;2022-10-19T07:52:56;102417.56;;;7.20
24586;BMP280;12743;52.262;6.172;2022-10-19T07:55:21;102418.13;;;7.27
24586;BMP280;12743;52.262;6.172;2022-10-19T07:57:47;102424.38;;;7.26
24586;BMP280;12743;52.262;6.172;2022-10-19T08:00:13;102411.84;;;7.28
24586;BMP280;12743;52.262;6.172;2022-10-19T08:02:39;102418.44;;;7.51
24586;BMP280;12743;52.262;6.172;2022-10-19T08:05:04;102424.47;;;7.57
24586;BMP280;12743;52.262;6.172;2022-10-19T08:07:32;102417.91;;;7.54
24586;BMP280;12743;52.262;6.172;2022-10-19T08:09:57;102424.72;;;7.65
24586;BMP280;12743;52.262;6.172;2022-10-19T08:12:23;102427.31;;;7.55
24586;BMP280;12743;52.262;6.172;2022-10-19T08:14:48;102429.16;;;7.55
24586;BMP280;12743;52.262;6.172;2022-10-19T08:17:13;102425.78;;;7.74
24586;BMP280;12743;52.262;6.172;2022-10-19T08:19:41;102428.41;;;7.84
24586;BMP280;12743;52.262;6.172;2022-10-19T08:22:07;102432.88;;;7.99
24586;BMP280;12743;52.262;6.172;2022-10-19T08:24:33;102436.78;;;7.96
24586;BMP280;12743;52.262;6.172;2022-10-19T08:26:58;102428.69;;;8.03
24586;BMP280;12743;52.262;6.172;2022-10-19T08:29:26;102439.41;;;8.17
24586;BMP280;12743;52.262;6.172;2022-10-19T08:31:52;102428.16;;;8.21
24586;BMP280;12743;52.262;6.172;2022-10-19T08:34:18;102426.59;;;8.25
24586;BMP280;12743;52.262;6.172;2022-10-19T08:36:43;102425.50;;;8.41
24586;BMP280;12743;52.262;6.172;2022-10-19T08:39:09;102416.59;;;8.52
24586;BMP280;12743;52.262;6.172;2022-10-19T08:47:47;102395.81;;;8.71
24586;BMP280;12743;52.262;6.172;2022-10-19T08:49:47;102423.53;;;8.92
24586;BMP280;12743;52.262;6.172;2022-10-19T08:52:18;102411.97;;;8.98
24586;BMP280;12743;52.262;6.172;2022-10-19T08:54:55;102426.81;;;9.23
24586;BMP280;12743;52.262;6.172;2022-10-19T09:00:41;102414.94;;;9.30
24586;BMP280;12743;52.262;6.172;2022-10-19T09:03:41;102432.78;;;9.72
24586;BMP280;12743;52.262;6.172;2022-10-19T09:06:17;102424.34;;;9.75
24586;BMP280;12743;52.262;6.172;2022-10-19T09:08:48;102407.56;;;9.76
24586;BMP280;12743;52.262;6.172;2022-10-19T09:11:18;102414.94;;;10.03
24586;BMP280;12743;52.262;6.172;2022-10-19T09:13:46;102415.56;;;10.19
24586;BMP280;12743;52.262;6.172;2022-10-19T09:16:14;102406.84;;;10.23
24586;BMP280;12743;52.262;6.172;2022-10-19T09:18:40;102403.75;;;10.45
24586;BMP280;12743;52.262;6.172;2022-10-19T09:21:19;102397.91;;;10.48
24586;BMP280;12743;52.262;6.172;2022-10-19T09:24:08;102397.34;;;10.74
24586;BMP280;12743;52.262;6.172;2022-10-19T09:26:45;102392.28;;;10.78
24586;BMP280;12743;52.262;6.172;2022-10-19T09:29:23;102391.16;;;10.84
24586;BMP280;12743;52.262;6.172;2022-10-19T09:31:53;102388.44;;;10.89
24586;BMP280;12743;52.262;6.172;2022-10-19T09:34:48;102388.81;;;11.20
24586;BMP280;12743;52.262;6.172;2022-10-19T09:37:15;102383.25;;;11.03
24586;BMP280;12743;52.262;6.172;2022-10-19T09:39:41;102380.84;;;11.06
24586;BMP280;12743;52.262;6.172;2022-10-19T09:42:12;102350.91;;;11.02
24586;BMP280;12743;52.262;6.172;2022-10-19T09:44:40;102379.03;;;11.39
24586;BMP280;12743;52.262;6.172;2022-10-19T09:47:34;102372.16;;;11.57
24586;BMP280;12743;52.262;6.172;2022-10-19T09:50:15;102369.19;;;11.77
24586;BMP280;12743;52.262;6.172;2022-10-19T09:52:43;102370.72;;;11.64
24586;BMP280;12743;52.262;6.172;2022-10-19T09:57:47;102358.25;;;11.70
24586;BMP280;12743;52.262;6.172;2022-10-19T10:00:23;102353.88;;;11.79
24586;BMP280;12743;52.262;6.172;2022-10-19T10:02:51;102364.22;;;11.75
24586;BMP280;12743;52.262;6.172;2022-10-19T10:05:18;102354.66;;;11.93
24586;BMP280;12743;52.262;6.172;2022-10-19T10:07:44;102345.97;;;11.79
24586;BMP280;12743;52.262;6.172;2022-10-19T10:10:10;102358.97;;;11.89
24586;BMP280;12743;52.262;6.172;2022-10-19T10:12:43;102361.13;;;11.87
24586;BMP280;12743;52.262;6.172;2022-10-19T10:15:15;102358.38;;;12.05
24586;BMP280;12743;52.262;6.172;2022-10-19T10:17:44;102368.84;;;12.10
24586;BMP280;12743;52.262;6.172;2022-10-19T10:20:29;102328.94;;;11.90
24586;BMP280;12743;52.262;6.172;2022-10-19T10:23:01;102357.81;;;11.81
24586;BMP280;12743;52.262;6.172;2022-10-19T10:25:31;102349.41;;;11.79
24586;BMP280;12743;52.262;6.172;2022-10-19T10:28:02;102344.03;;;11.84
24586;BMP280;12743;52.262;6.172;2022-10-19T10:30:33;102352.25;;;11.83
24586;BMP280;12743;52.262;6.172;2022-10-19T10:32:59;102335.16;;;11.80
24586;BMP280;12743;52.262;6.172;2022-10-19T10:35:30;102338.00;;;11.84
24586;BMP280;12743;52.262;6.172;2022-10-19T10:40:30;102335.75;;;11.77
24586;BMP280;12743;52.262;6.172;2022-10-19T10:43:00;102335.44;;;11.79
24586;BMP280;12743;52.262;6.172;2022-10-19T10:45:41;102300.13;;;11.53
24586;BMP280;12743;52.262;6.172;2022-10-19T10:48:27;102337.50;;;11.95
24586;BMP280;12743;52.262;6.172;2022-10-19T10:50:56;102337.22;;;11.97
24586;BMP280;12743;52.262;6.172;2022-10-19T10:53:41;102331.75;;;11.93
24586;BMP280;12743;52.262;6.172;2022-10-19T10:56:23;102321.22;;;12.07
24586;BMP280;12743;52.262;6.172;2022-10-19T10:59:02;102313.81;;;12.09
24586;BMP280;12743;52.262;6.172;2022-10-19T11:01:32;102309.59;;;12.08
24586;BMP280;12743;52.262;6.172;2022-10-19T11:04:03;102299.81;;;12.22
24586;BMP280;12743;52.262;6.172;2022-10-19T11:06:30;102296.22;;;12.32
24586;BMP280;12743;52.262;6.172;2022-10-19T11:11:36;102288.59;;;12.30
24586;BMP280;12743;52.262;6.172;2022-10-19T11:14:18;102299.63;;;12.32
24586;BMP280;12743;52.262;6.172;2022-10-19T11:16:46;102298.63;;;12.28
24586;BMP280;12743;52.262;6.172;2022-10-19T11:19:20;102305.88;;;12.23
24586;BMP280;12743;52.262;6.172;2022-10-19T11:32:44;102283.50;;;12.34
24586;BMP280;12743;52.262;6.172;2022-10-19T11:43:36;102252.53;;;12.39
24586;BMP280;12743;52.262;6.172;2022-10-19T11:46:27;102248.06;;;12.40
24586;BMP280;12743;52.262;6.172;2022-10-19T11:52:08;102255.75;;;12.50
24586;BMP280;12743;52.262;6.172;2022-10-19T11:57:33;102234.25;;;12.56
24586;BMP280;12743;52.262;6.172;2022-10-19T12:00:10;102226.94;;;12.53
24586;BMP280;12743;52.262;6.172;2022-10-19T12:09:02;102197.41;;;12.43
24586;BMP280;12743;52.262;6.172;2022-10-19T12:11:44;102194.34;;;12.49
24586;BMP280;12743;52.262;6.172;2022-10-19T12:14:16;102198.50;;;12.64
24586;BMP280;12743;52.262;6.172;2022-10-19T12:16:48;102177.47;;;12.50
24586;BMP280;12743;52.262;6.172;2022-10-19T12:19:24;102191.00;;;12.57
24586;BMP280;12743;52.262;6.172;2022-10-19T12:21:52;102177.97;;;12.61
24586;BMP280;12743;52.262;6.172;2022-10-19T12:24:22;102181.03;;;12.54
24586;BMP280;12743;52.262;6.172;2022-10-19T12:26:49;102179.06;;;12.60
24586;BMP280;12743;52.262;6.172;2022-10-19T12:29:21;102172.13;;;12.64
24586;BMP280;12743;52.262;6.172;2022-10-19T12:31:47;102144.47;;;12.53
24586;BMP280;12743;52.262;6.172;2022-10-19T12:37:33;102158.34;;;12.75
24586;BMP280;12743;52.262;6.172;2022-10-19T12:40:16;102140.66;;;12.67
24586;BMP280;12743;52.262;6.172;2022-10-19T12:53:36;102126.28;;;12.82
24586;BMP280;12743;52.262;6.172;2022-10-19T12:58:43;102120.44;;;12.93
24586;BMP280;12743;52.262;6.172;2022-10-19T13:01:22;102106.75;;;12.83
24586;BMP280;12743;52.262;6.172;2022-10-19T13:03:53;102090.00;;;12.79
24586;BMP280;12743;52.262;6.172;2022-10-19T13:06:32;102110.81;;;12.98
24586;BMP280;12743;52.262;6.172;2022-10-19T13:09:03;102101.97;;;12.93
24586;BMP280;12743;52.262;6.172;2022-10-19T13:11:29;102096.84;;;12.88
24586;BMP280;12743;52.262;6.172;2022-10-19T13:14:01;102092.19;;;12.94
24586;BMP280;12743;52.262;6.172;2022-10-19T13:19:16;102091.63;;;13.06
24586;BMP280;12743;52.262;6.172;2022-10-19T13:21:54;102086.34;;;13.14
24586;BMP280;12743;52.262;6.172;2022-10-19T13:34:53;102063.69;;;13.13
24586;BMP280;12743;52.262;6.172;2022-10-19T13:37:19;102068.19;;;13.13
24586;BMP280;12743;52.262;6.172;2022-10-19T13:39:46;102065.28;;;13.23
24586;BMP280;12743;52.262;6.172;2022-10-19T13:42:22;102063.88;;;13.17
24586;BMP280;12743;52.262;6.172;2022-10-19T13:44:49;102063.56;;;13.18
24586;BMP280;12743;52.262;6.172;2022-10-19T13:47:36;102059.81;;;13.11
24586;BMP280;12743;52.262;6.172;2022-10-19T13:53:10;102059.69;;;13.33
24586;BMP280;12743;52.262;6.172;2022-10-19T13:55:58;102052.69;;;13.37
24586;BMP280;12743;52.262;6.172;2022-10-19T14:06:26;102036.41;;;13.18
24586;BMP280;12743;52.262;6.172;2022-10-19T14:12:17;102035.47;;;13.22
24586;BMP280;12743;52.262;6.172;2022-10-19T14:14:46;102036.06;;;13.11
24586;BMP280;12743;52.262;6.172;2022-10-19T14:17:14;102031.56;;;13.11
24586;BMP280;12743;52.262;6.172;2022-10-19T14:22:18;102025.94;;;12.87
24586;BMP280;12743;52.262;6.172;2022-10-19T14:24:44;101991.91;;;12.68
24586;BMP280;12743;52.262;6.172;2022-10-19T14:27:18;102022.25;;;12.97
24586;BMP280;12743;52.262;6.172;2022-10-19T14:29:48;102017.59;;;12.93
24586;BMP280;12743;52.262;6.172;2022-10-19T14:32:14;102022.84;;;12.85
24586;BMP280;12743;52.262;6.172;2022-10-19T14:34:42;102005.94;;;12.86
24586;BMP280;12743;52.262;6.172;2022-10-19T14:37:24;102010.78;;;12.92
24586;BMP280;12743;52.262;6.172;2022-10-19T14:40:07;102011.97;;;12.86
24586;BMP280;12743;52.262;6.172;2022-10-19T14:42:38;102012.16;;;12.90
24586;BMP280;12743;52.262;6.172;2022-10-19T14:45:11;102007.03;;;12.93
24586;BMP280;12743;52.262;6.172;2022-10-19T14:47:49;102010.31;;;12.99
24586;BMP280;12743;52.262;6.172;2022-10-19T14:50:15;102003.13;;;12.82
24586;BMP280;12743;52.262;6.172;2022-10-19T14:52:41;102006.06;;;12.72
24586;BMP280;12743;52.262;6.172;2022-10-19T14:55:13;102008.25;;;12.79
24586;BMP280;12743;52.262;6.172;2022-10-19T14:57:41;101993.94;;;12.71
24586;BMP280;12743;52.262;6.172;2022-10-19T15:00:16;101993.22;;;12.79
24586;BMP280;12743;52.262;6.172;2022-10-19T15:02:45;102000.47;;;12.74
24586;BMP280;12743;52.262;6.172;2022-10-19T15:05:21;101995.06;;;12.70
24586;BMP280;12743;52.262;6.172;2022-10-19T15:07:47;101998.41;;;12.62
24586;BMP280;12743;52.262;6.172;2022-10-19T15:12:41;101991.44;;;12.58
24586;BMP280;12743;52.262;6.172;2022-10-19T15:15:24;101993.59;;;12.56
24586;BMP280;12743;52.262;6.172;2022-10-19T15:17:56;101984.44;;;12.53
24586;BMP280;12743;52.262;6.172;2022-10-19T15:20:35;101979.00;;;12.50
24586;BMP280;12743;52.262;6.172;2022-10-19T15:23:41;101988.97;;;12.53
24586;BMP280;12743;52.262;6.172;2022-10-19T15:28:51;101974.19;;;12.43
24586;BMP280;12743;52.262;6.172;2022-10-19T15:31:23;101978.31;;;12.36
24586;BMP280;12743;52.262;6.172;2022-10-19T15:33:50;101979.41;;;12.35
24586;BMP280;12743;52.262;6.172;2022-10-19T15:36:17;101972.28;;;12.35
24586;BMP280;12743;52.262;6.172;2022-10-19T15:38:45;101970.09;;;12.29
24586;BMP280;12743;52.262;6.172;2022-10-19T15:41:58;101975.66;;;12.27
24586;BMP280;12743;52.262;6.172;2022-10-19T15:44:06;101975.78;;;12.22
24586;BMP280;12743;52.262;6.172;2022-10-19T15:47:01;101961.69;;;12.18
24586;BMP280;12743;52.262;6.172;2022-10-19T15:52:27;101968.47;;;12.10
24586;BMP280;12743;52.262;6.172;2022-10-19T15:54:55;101949.50;;;12.00
24586;BMP280;12743;52.262;6.172;2022-10-19T15:59:56;101956.00;;;11.94
24586;BMP280;12743;52.262;6.172;2022-10-19T16:02:21;101951.78;;;11.93
24586;BMP280;12743;52.262;6.172;2022-10-19T16:04:50;101952.09;;;11.91
24586;BMP280;12743;52.262;6.172;2022-10-19T16:07:23;101950.06;;;11.88
24586;BMP280;12743;52.262;6.172;2022-10-19T16:09:49;101948.94;;;11.81
24586;BMP280;12743;52.262;6.172;2022-10-19T16:12:14;101936.03;;;11.71
24586;BMP280;12743;52.262;6.172;2022-10-19T16:14:40;101898.63;;;11.52
24586;BMP280;12743;52.262;6.172;2022-10-19T16:17:05;101931.47;;;11.63
24586;BMP280;12743;52.262;6.172;2022-10-19T16:19:31;101920.00;;;11.59